sensor_id;sensor_type;location;lat;lon;timestamp;P1;durP1;ratioP1;P2;durP2;ratioP2
19436;SDS011;9854;50.968;4.168;2023-04-06T00:00:30;25.17;;;17.50;;
19436;SDS011;9854;50.968;4.168;2023-04-06T00:02:56;29.13;;;17.73;;
19436;SDS011;9854;50.968;4.168;2023-04-06T00:05:21;31.60;;;18.80;;
19436;SDS011;9854;50.968;4.168;2023-04-06T00:07:48;28.50;;;17.83;;
19436;SDS011;9854;50.968;4.168;2023-04-06T00:10:14;29.73;;;17.83;;
19436;SDS011;9854;50.968;4.168;2023-04-06T00:12:40;26.83;;;16.77;;
19436;SDS011;9854;50.968;4.168;2023-04-06T00:15:06;27.00;;;16.80;;
19436;SDS011;9854;50.968;4.168;2023-04-06T00:17:33;22.73;;;16.37;;
19436;SDS011;9854;50.968;4.168;2023-04-06T00:19:58;27.67;;;16.90;;
19436;SDS011;9854;50.968;4.168;2023-04-06T00:22:24;22.50;;;17.10;;
19436;SDS011;9854;50.968;4.168;2023-04-06T00:24:50;24.30;;;16.83;;
19436;SDS011;9854;50.968;4.168;2023-04-06T00:27:15;25.17;;;16.60;;
19436;SDS011;9854;50.968;4.168;2023-04-06T00:29:41;26.43;;;16.80;;
19436;SDS011;9854;50.968;4.168;2023-04-06T00:32:08;25.23;;;16.87;;
19436;SDS011;9854;50.968;4.168;2023-04-06T00:34:34;26.10;;;16.67;;
19436;SDS011;9854;50.968;4.168;2023-04-06T00:37:00;23.57;;;17.60;;
19436;SDS011;9854;50.968;4.168;2023-04-06T00:39:25;24.33;;;16.67;;
19436;SDS011;9854;50.968;4.168;2023-04-06T00:41:51;32.37;;;17.67;;
19436;SDS011;9854;50.968;4.168;2023-04-06T00:44:18;22.33;;;16.10;;
19436;SDS011;9854;50.968;4.168;2023-04-06T00:46:44;23.73;;;16.43;;
19436;SDS011;9854;50.968;4.168;2023-04-06T00:49:10;24.67;;;17.10;;
19436;SDS011;9854;50.968;4.168;2023-04-06T00:51:36;25.87;;;17.13;;
19436;SDS011;9854;50.968;4.168;2023-04-06T00:54:02;22.93;;;16.97;;
19436;SDS011;9854;50.968;4.168;2023-04-06T00:56:28;26.90;;;17.57;;
19436;SDS011;9854;50.968;4.168;2023-04-06T00:58:53;24.33;;;17.13;;
19436;SDS011;9854;50.968;4.168;2023-04-06T01:01:19;32.03;;;18.07;;
19436;SDS011;9854;50.968;4.168;2023-04-06T01:03:45;27.17;;;18.33;;
19436;SDS011;9854;50.968;4.168;2023-04-06T01:06:14;27.50;;;17.60;;
19436;SDS011;9854;50.968;4.168;2023-04-06T01:08:39;26.53;;;17.50;;
19436;SDS011;9854;50.968;4.168;2023-04-06T01:11:05;29.23;;;17.50;;
19436;SDS011;9854;50.968;4.168;2023-04-06T01:13:31;25.43;;;17.30;;
19436;SDS011;9854;50.968;4.168;2023-04-06T01:15:57;22.30;;;17.30;;
19436;SDS011;9854;50.968;4.168;2023-04-06T01:18:26;31.83;;;18.33;;
19436;SDS011;9854;50.968;4.168;2023-04-06T01:20:52;31.40;;;18.07;;
19436;SDS011;9854;50.968;4.168;2023-04-06T01:23:18;31.23;;;18.03;;
19436;SDS011;9854;50.968;4.168;2023-04-06T01:25:44;28.27;;;17.90;;
19436;SDS011;9854;50.968;4.168;2023-04-06T01:28:10;26.07;;;18.07;;
19436;SDS011;9854;50.968;4.168;2023-04-06T01:30:36;26.10;;;18.13;;
19436;SDS011;9854;50.968;4.168;2023-04-06T01:33:01;27.10;;;18.20;;
19436;SDS011;9854;50.968;4.168;2023-04-06T01:35:27;31.67;;;18.03;;
19436;SDS011;9854;50.968;4.168;2023-04-06T01:37:53;25.17;;;18.60;;
19436;SDS011;9854;50.968;4.168;2023-04-06T01:40:20;29.07;;;17.83;;
19436;SDS011;9854;50.968;4.168;2023-04-06T01:42:45;25.93;;;17.87;;
19436;SDS011;9854;50.968;4.168;2023-04-06T01:45:11;30.30;;;17.70;;
19436;SDS011;9854;50.968;4.168;2023-04-06T01:47:37;22.97;;;17.10;;
19436;SDS011;9854;50.968;4.168;2023-04-06T01:50:02;27.53;;;18.43;;
19436;SDS011;9854;50.968;4.168;2023-04-06T01:52:31;22.90;;;17.43;;
19436;SDS011;9854;50.968;4.168;2023-04-06T01:54:57;29.10;;;18.70;;
19436;SDS011;9854;50.968;4.168;2023-04-06T01:57:23;25.17;;;18.80;;
19436;SDS011;9854;50.968;4.168;2023-04-06T01:59:50;27.07;;;19.00;;
19436;SDS011;9854;50.968;4.168;2023-04-06T02:02:16;29.23;;;18.50;;
19436;SDS011;9854;50.968;4.168;2023-04-06T02:04:42;24.50;;;17.70;;
19436;SDS011;9854;50.968;4.168;2023-04-06T02:07:07;29.90;;;17.07;;
19436;SDS011;9854;50.968;4.168;2023-04-06T02:09:33;26.13;;;17.83;;
19436;SDS011;9854;50.968;4.168;2023-04-06T02:11:59;29.27;;;18.13;;
19436;SDS011;9854;50.968;4.168;2023-04-06T02:14:26;25.70;;;18.63;;
19436;SDS011;9854;50.968;4.168;2023-04-06T02:16:52;30.50;;;18.00;;
19436;SDS011;9854;50.968;4.168;2023-04-06T02:19:17;27.43;;;18.03;;
19436;SDS011;9854;50.968;4.168;2023-04-06T02:21:43;28.30;;;18.30;;
19436;SDS011;9854;50.968;4.168;2023-04-06T02:24:09;24.83;;;18.03;;
19436;SDS011;9854;50.968;4.168;2023-04-06T02:26:34;23.93;;;18.63;;
19436;SDS011;9854;50.968;4.168;2023-04-06T02:29:00;30.43;;;18.57;;
19436;SDS011;9854;50.968;4.168;2023-04-06T02:31:27;25.40;;;19.40;;
19436;SDS011;9854;50.968;4.168;2023-04-06T02:33:52;28.47;;;18.87;;
19436;SDS011;9854;50.968;4.168;2023-04-06T02:36:18;27.40;;;18.43;;
19436;SDS011;9854;50.968;4.168;2023-04-06T02:38:44;26.53;;;17.80;;
19436;SDS011;9854;50.968;4.168;2023-04-06T02:41:10;26.17;;;17.43;;
19436;SDS011;9854;50.968;4.168;2023-04-06T02:43:35;25.47;;;18.50;;
19436;SDS011;9854;50.968;4.168;2023-04-06T02:46:01;27.40;;;18.57;;
19436;SDS011;9854;50.968;4.168;2023-04-06T02:48:27;27.77;;;18.33;;
19436;SDS011;9854;50.968;4.168;2023-04-06T02:50:52;24.40;;;18.77;;
19436;SDS011;9854;50.968;4.168;2023-04-06T02:53:18;28.27;;;18.03;;
19436;SDS011;9854;50.968;4.168;2023-04-06T02:55:44;23.20;;;17.83;;
19436;SDS011;9854;50.968;4.168;2023-04-06T02:58:09;26.33;;;17.90;;
19436;SDS011;9854;50.968;4.168;2023-04-06T03:00:36;29.03;;;18.03;;
19436;SDS011;9854;50.968;4.168;2023-04-06T03:03:02;25.23;;;18.13;;
19436;SDS011;9854;50.968;4.168;2023-04-06T03:05:28;26.90;;;19.23;;
19436;SDS011;9854;50.968;4.168;2023-04-06T03:07:53;21.50;;;17.37;;
19436;SDS011;9854;50.968;4.168;2023-04-06T03:10:19;25.13;;;17.97;;
19436;SDS011;9854;50.968;4.168;2023-04-06T03:12:45;26.23;;;17.20;;
19436;SDS011;9854;50.968;4.168;2023-04-06T03:15:11;26.20;;;18.33;;
19436;SDS011;9854;50.968;4.168;2023-04-06T03:17:36;25.47;;;19.20;;
19436;SDS011;9854;50.968;4.168;2023-04-06T03:20:02;25.10;;;18.67;;
19436;SDS011;9854;50.968;4.168;2023-04-06T03:22:29;28.23;;;19.73;;
19436;SDS011;9854;50.968;4.168;2023-04-06T03:24:54;27.07;;;18.50;;
19436;SDS011;9854;50.968;4.168;2023-04-06T03:27:20;28.07;;;19.40;;
19436;SDS011;9854;50.968;4.168;2023-04-06T03:29:46;28.73;;;19.23;;
19436;SDS011;9854;50.968;4.168;2023-04-06T03:32:11;23.73;;;19.00;;
19436;SDS011;9854;50.968;4.168;2023-04-06T03:34:37;25.45;;;19.65;;
19436;SDS011;9854;50.968;4.168;2023-04-06T03:37:04;24.37;;;19.07;;
19436;SDS011;9854;50.968;4.168;2023-04-06T03:39:30;25.27;;;19.60;;
19436;SDS011;9854;50.968;4.168;2023-04-06T03:41:55;26.13;;;20.10;;
19436;SDS011;9854;50.968;4.168;2023-04-06T03:44:21;25.30;;;18.97;;
19436;SDS011;9854;50.968;4.168;2023-04-06T03:46:47;25.07;;;19.70;;
19436;SDS011;9854;50.968;4.168;2023-04-06T03:49:12;25.23;;;19.20;;
19436;SDS011;9854;50.968;4.168;2023-04-06T03:51:38;23.33;;;19.03;;
19436;SDS011;9854;50.968;4.168;2023-04-06T03:54:04;22.70;;;19.23;;
19436;SDS011;9854;50.968;4.168;2023-04-06T03:56:30;23.83;;;18.80;;
19436;SDS011;9854;50.968;4.168;2023-04-06T03:58:56;23.47;;;19.00;;
19436;SDS011;9854;50.968;4.168;2023-04-06T04:01:21;24.93;;;19.77;;
19436;SDS011;9854;50.968;4.168;2023-04-06T04:03:47;27.47;;;19.40;;
19436;SDS011;9854;50.968;4.168;2023-04-06T04:06:13;25.63;;;20.10;;
19436;SDS011;9854;50.968;4.168;2023-04-06T04:08:38;29.97;;;20.10;;
19436;SDS011;9854;50.968;4.168;2023-04-06T04:11:04;26.73;;;20.30;;
19436;SDS011;9854;50.968;4.168;2023-04-06T04:13:30;27.17;;;21.27;;
19436;SDS011;9854;50.968;4.168;2023-04-06T04:15:55;31.03;;;21.03;;
19436;SDS011;9854;50.968;4.168;2023-04-06T04:18:21;31.93;;;22.47;;
19436;SDS011;9854;50.968;4.168;2023-04-06T04:20:47;28.57;;;20.77;;
19436;SDS011;9854;50.968;4.168;2023-04-06T04:23:12;27.23;;;21.03;;
19436;SDS011;9854;50.968;4.168;2023-04-06T04:25:38;29.73;;;22.07;;
19436;SDS011;9854;50.968;4.168;2023-04-06T04:28:03;30.40;;;22.10;;
19436;SDS011;9854;50.968;4.168;2023-04-06T04:30:30;29.03;;;21.53;;
19436;SDS011;9854;50.968;4.168;2023-04-06T04:32:55;30.47;;;22.13;;
19436;SDS011;9854;50.968;4.168;2023-04-06T04:35:21;33.77;;;21.87;;
19436;SDS011;9854;50.968;4.168;2023-04-06T04:37:47;30.30;;;22.67;;
19436;SDS011;9854;50.968;4.168;2023-04-06T04:40:12;33.77;;;22.50;;
19436;SDS011;9854;50.968;4.168;2023-04-06T04:42:38;28.67;;;22.27;;
19436;SDS011;9854;50.968;4.168;2023-04-06T04:45:04;32.07;;;22.77;;
19436;SDS011;9854;50.968;4.168;2023-04-06T04:47:30;29.63;;;23.33;;
19436;SDS011;9854;50.968;4.168;2023-04-06T04:49:56;33.70;;;23.27;;
19436;SDS011;9854;50.968;4.168;2023-04-06T04:52:21;30.30;;;23.07;;
19436;SDS011;9854;50.968;4.168;2023-04-06T04:54:47;33.00;;;24.80;;
19436;SDS011;9854;50.968;4.168;2023-04-06T04:57:13;36.70;;;24.13;;
19436;SDS011;9854;50.968;4.168;2023-04-06T04:59:38;32.87;;;24.17;;
19436;SDS011;9854;50.968;4.168;2023-04-06T05:02:04;30.83;;;24.33;;
19436;SDS011;9854;50.968;4.168;2023-04-06T05:04:30;32.27;;;24.90;;
19436;SDS011;9854;50.968;4.168;2023-04-06T05:07:03;34.33;;;23.93;;
19436;SDS011;9854;50.968;4.168;2023-04-06T05:09:31;36.50;;;26.20;;
19436;SDS011;9854;50.968;4.168;2023-04-06T05:11:58;37.53;;;24.47;;
19436;SDS011;9854;50.968;4.168;2023-04-06T05:14:24;34.87;;;25.13;;
19436;SDS011;9854;50.968;4.168;2023-04-06T05:16:50;36.63;;;24.63;;
19436;SDS011;9854;50.968;4.168;2023-04-06T05:19:16;33.07;;;23.33;;
19436;SDS011;9854;50.968;4.168;2023-04-06T05:21:42;31.20;;;23.92;;
19436;SDS011;9854;50.968;4.168;2023-04-06T05:24:08;33.80;;;24.97;;
19436;SDS011;9854;50.968;4.168;2023-04-06T05:26:33;35.47;;;24.60;;
19436;SDS011;9854;50.968;4.168;2023-04-06T05:28:59;38.87;;;23.13;;
19436;SDS011;9854;50.968;4.168;2023-04-06T05:31:25;33.70;;;24.38;;
19436;SDS011;9854;50.968;4.168;2023-04-06T05:33:51;34.70;;;24.33;;
19436;SDS011;9854;50.968;4.168;2023-04-06T05:36:17;32.40;;;25.07;;
19436;SDS011;9854;50.968;4.168;2023-04-06T05:38:42;37.47;;;23.60;;
19436;SDS011;9854;50.968;4.168;2023-04-06T05:41:08;34.47;;;23.53;;
19436;SDS011;9854;50.968;4.168;2023-04-06T05:43:34;33.93;;;23.90;;
19436;SDS011;9854;50.968;4.168;2023-04-06T05:46:00;36.93;;;24.57;;
19436;SDS011;9854;50.968;4.168;2023-04-06T05:48:25;29.77;;;23.77;;
19436;SDS011;9854;50.968;4.168;2023-04-06T05:50:51;33.40;;;23.83;;
19436;SDS011;9854;50.968;4.168;2023-04-06T05:53:18;34.80;;;24.47;;
19436;SDS011;9854;50.968;4.168;2023-04-06T05:55:45;39.73;;;25.67;;
19436;SDS011;9854;50.968;4.168;2023-04-06T05:58:11;35.37;;;24.77;;
19436;SDS011;9854;50.968;4.168;2023-04-06T06:00:37;36.60;;;25.47;;
19436;SDS011;9854;50.968;4.168;2023-04-06T06:03:03;36.00;;;24.67;;
19436;SDS011;9854;50.968;4.168;2023-04-06T06:05:30;30.53;;;23.63;;
19436;SDS011;9854;50.968;4.168;2023-04-06T06:07:56;35.87;;;25.37;;
19436;SDS011;9854;50.968;4.168;2023-04-06T06:10:22;32.53;;;25.07;;
19436;SDS011;9854;50.968;4.168;2023-04-06T06:12:48;31.67;;;23.83;;
19436;SDS011;9854;50.968;4.168;2023-04-06T06:15:13;34.50;;;23.43;;
19436;SDS011;9854;50.968;4.168;2023-04-06T06:17:39;36.70;;;24.90;;
19436;SDS011;9854;50.968;4.168;2023-04-06T06:20:06;34.60;;;24.13;;
19436;SDS011;9854;50.968;4.168;2023-04-06T06:22:32;41.67;;;26.10;;
19436;SDS011;9854;50.968;4.168;2023-04-06T06:24:58;34.07;;;24.47;;
19436;SDS011;9854;50.968;4.168;2023-04-06T06:27:23;34.13;;;25.07;;
19436;SDS011;9854;50.968;4.168;2023-04-06T06:29:49;36.47;;;25.23;;
19436;SDS011;9854;50.968;4.168;2023-04-06T06:32:15;34.43;;;25.10;;
19436;SDS011;9854;50.968;4.168;2023-04-06T06:34:40;37.47;;;26.47;;
19436;SDS011;9854;50.968;4.168;2023-04-06T06:37:06;33.13;;;24.70;;
19436;SDS011;9854;50.968;4.168;2023-04-06T06:39:32;33.43;;;25.23;;
19436;SDS011;9854;50.968;4.168;2023-04-06T06:41:57;33.27;;;24.37;;
19436;SDS011;9854;50.968;4.168;2023-04-06T06:44:26;37.20;;;24.17;;
19436;SDS011;9854;50.968;4.168;2023-04-06T06:46:52;37.73;;;24.90;;
19436;SDS011;9854;50.968;4.168;2023-04-06T06:49:18;35.27;;;24.73;;
19436;SDS011;9854;50.968;4.168;2023-04-06T06:51:44;37.03;;;25.57;;
19436;SDS011;9854;50.968;4.168;2023-04-06T06:54:11;28.80;;;21.80;;
19436;SDS011;9854;50.968;4.168;2023-04-06T06:56:37;30.57;;;24.63;;
19436;SDS011;9854;50.968;4.168;2023-04-06T06:59:04;32.90;;;23.70;;
19436;SDS011;9854;50.968;4.168;2023-04-06T07:01:32;33.63;;;23.80;;
19436;SDS011;9854;50.968;4.168;2023-04-06T07:03:58;32.53;;;23.53;;
19436;SDS011;9854;50.968;4.168;2023-04-06T07:06:24;32.43;;;23.97;;
19436;SDS011;9854;50.968;4.168;2023-04-06T07:08:50;32.23;;;23.10;;
19436;SDS011;9854;50.968;4.168;2023-04-06T07:11:15;32.03;;;24.20;;
19436;SDS011;9854;50.968;4.168;2023-04-06T07:13:42;27.90;;;21.33;;
19436;SDS011;9854;50.968;4.168;2023-04-06T07:16:08;27.90;;;21.70;;
19436;SDS011;9854;50.968;4.168;2023-04-06T07:18:33;31.17;;;21.83;;
19436;SDS011;9854;50.968;4.168;2023-04-06T07:20:59;29.40;;;21.43;;
19436;SDS011;9854;50.968;4.168;2023-04-06T07:23:25;34.87;;;22.63;;
19436;SDS011;9854;50.968;4.168;2023-04-06T07:25:51;26.77;;;20.47;;
19436;SDS011;9854;50.968;4.168;2023-04-06T07:28:18;25.57;;;20.37;;
19436;SDS011;9854;50.968;4.168;2023-04-06T07:30:44;25.57;;;20.27;;
19436;SDS011;9854;50.968;4.168;2023-04-06T07:33:10;30.53;;;20.47;;
19436;SDS011;9854;50.968;4.168;2023-04-06T07:35:36;27.37;;;20.50;;
19436;SDS011;9854;50.968;4.168;2023-04-06T07:38:02;27.63;;;20.07;;
19436;SDS011;9854;50.968;4.168;2023-04-06T07:40:28;23.27;;;19.07;;
19436;SDS011;9854;50.968;4.168;2023-04-06T07:42:54;23.90;;;18.60;;
19436;SDS011;9854;50.968;4.168;2023-04-06T07:45:20;21.57;;;16.87;;
19436;SDS011;9854;50.968;4.168;2023-04-06T07:47:45;21.77;;;16.87;;
19436;SDS011;9854;50.968;4.168;2023-04-06T07:50:11;23.70;;;17.17;;
19436;SDS011;9854;50.968;4.168;2023-04-06T07:52:38;18.50;;;15.90;;
19436;SDS011;9854;50.968;4.168;2023-04-06T07:55:04;18.87;;;14.93;;
19436;SDS011;9854;50.968;4.168;2023-04-06T07:57:30;22.20;;;16.43;;
19436;SDS011;9854;50.968;4.168;2023-04-06T07:59:55;21.40;;;14.93;;
19436;SDS011;9854;50.968;4.168;2023-04-06T08:02:21;17.93;;;14.23;;
19436;SDS011;9854;50.968;4.168;2023-04-06T08:04:47;21.30;;;16.03;;
19436;SDS011;9854;50.968;4.168;2023-04-06T08:07:13;24.57;;;14.73;;
19436;SDS011;9854;50.968;4.168;2023-04-06T08:09:38;19.93;;;15.33;;
19436;SDS011;9854;50.968;4.168;2023-04-06T08:12:04;18.00;;;14.93;;
19436;SDS011;9854;50.968;4.168;2023-04-06T08:14:30;18.90;;;14.87;;
19436;SDS011;9854;50.968;4.168;2023-04-06T08:16:55;18.57;;;13.93;;
19436;SDS011;9854;50.968;4.168;2023-04-06T08:19:21;18.23;;;13.87;;
19436;SDS011;9854;50.968;4.168;2023-04-06T08:21:47;18.90;;;13.60;;
19436;SDS011;9854;50.968;4.168;2023-04-06T08:24:13;18.90;;;12.87;;
19436;SDS011;9854;50.968;4.168;2023-04-06T08:26:39;17.20;;;13.00;;
19436;SDS011;9854;50.968;4.168;2023-04-06T08:29:05;16.77;;;10.67;;
19436;SDS011;9854;50.968;4.168;2023-04-06T08:31:34;14.73;;;11.30;;
19436;SDS011;9854;50.968;4.168;2023-04-06T08:34:00;12.60;;;11.07;;
19436;SDS011;9854;50.968;4.168;2023-04-06T08:36:26;13.43;;;11.87;;
19436;SDS011;9854;50.968;4.168;2023-04-06T08:38:52;14.10;;;11.03;;
19436;SDS011;9854;50.968;4.168;2023-04-06T08:41:18;14.47;;;12.17;;
19436;SDS011;9854;50.968;4.168;2023-04-06T08:43:49;15.77;;;11.70;;
19436;SDS011;9854;50.968;4.168;2023-04-06T08:46:21;14.57;;;10.90;;
19436;SDS011;9854;50.968;4.168;2023-04-06T08:48:48;15.97;;;12.13;;
19436;SDS011;9854;50.968;4.168;2023-04-06T08:51:15;16.57;;;11.93;;
19436;SDS011;9854;50.968;4.168;2023-04-06T08:53:41;16.33;;;11.63;;
19436;SDS011;9854;50.968;4.168;2023-04-06T08:56:07;17.97;;;13.30;;
19436;SDS011;9854;50.968;4.168;2023-04-06T08:58:35;16.97;;;13.17;;
19436;SDS011;9854;50.968;4.168;2023-04-06T09:01:06;17.37;;;12.77;;
19436;SDS011;9854;50.968;4.168;2023-04-06T09:03:35;17.70;;;12.87;;
19436;SDS011;9854;50.968;4.168;2023-04-06T09:06:03;13.70;;;11.40;;
19436;SDS011;9854;50.968;4.168;2023-04-06T09:08:30;15.77;;;12.30;;
19436;SDS011;9854;50.968;4.168;2023-04-06T09:10:55;14.80;;;12.13;;
19436;SDS011;9854;50.968;4.168;2023-04-06T09:13:21;20.40;;;12.83;;
19436;SDS011;9854;50.968;4.168;2023-04-06T09:15:46;16.10;;;12.63;;
19436;SDS011;9854;50.968;4.168;2023-04-06T09:18:30;14.87;;;12.07;;
19436;SDS011;9854;50.968;4.168;2023-04-06T09:21:00;14.37;;;12.63;;
19436;SDS011;9854;50.968;4.168;2023-04-06T09:23:30;14.57;;;12.53;;
19436;SDS011;9854;50.968;4.168;2023-04-06T09:31:29;15.93;;;12.67;;
19436;SDS011;9854;50.968;4.168;2023-04-06T09:33:57;17.07;;;12.77;;
19436;SDS011;9854;50.968;4.168;2023-04-06T09:36:34;13.67;;;12.10;;
19436;SDS011;9854;50.968;4.168;2023-04-06T09:39:04;16.87;;;13.00;;
19436;SDS011;9854;50.968;4.168;2023-04-06T09:41:30;18.97;;;13.63;;
19436;SDS011;9854;50.968;4.168;2023-04-06T09:46:33;14.13;;;12.37;;
19436;SDS011;9854;50.968;4.168;2023-04-06T09:49:03;14.07;;;12.63;;
19436;SDS011;9854;50.968;4.168;2023-04-06T09:51:30;16.60;;;12.80;;
19436;SDS011;9854;50.968;4.168;2023-04-06T09:54:00;18.40;;;13.30;;
19436;SDS011;9854;50.968;4.168;2023-04-06T09:56:30;16.20;;;13.30;;
19436;SDS011;9854;50.968;4.168;2023-04-06T09:59:05;13.47;;;12.10;;
19436;SDS011;9854;50.968;4.168;2023-04-06T10:01:38;14.53;;;12.37;;
19436;SDS011;9854;50.968;4.168;2023-04-06T10:06:33;14.87;;;12.20;;
19436;SDS011;9854;50.968;4.168;2023-04-06T10:09:01;16.17;;;12.47;;
19436;SDS011;9854;50.968;4.168;2023-04-06T10:11:29;14.63;;;13.13;;
19436;SDS011;9854;50.968;4.168;2023-04-06T10:13:55;18.63;;;13.30;;
19436;SDS011;9854;50.968;4.168;2023-04-06T10:16:21;18.60;;;13.88;;
19436;SDS011;9854;50.968;4.168;2023-04-06T10:18:50;16.37;;;13.83;;
19436;SDS011;9854;50.968;4.168;2023-04-06T10:21:22;16.73;;;13.67;;
19436;SDS011;9854;50.968;4.168;2023-04-06T10:23:52;18.43;;;13.90;;
19436;SDS011;9854;50.968;4.168;2023-04-06T10:26:21;15.70;;;13.50;;
19436;SDS011;9854;50.968;4.168;2023-04-06T10:28:47;19.33;;;14.57;;
19436;SDS011;9854;50.968;4.168;2023-04-06T10:31:14;17.13;;;13.57;;
19436;SDS011;9854;50.968;4.168;2023-04-06T10:33:40;15.27;;;13.67;;
19436;SDS011;9854;50.968;4.168;2023-04-06T10:36:13;17.90;;;14.63;;
19436;SDS011;9854;50.968;4.168;2023-04-06T10:38:40;21.07;;;14.53;;
19436;SDS011;9854;50.968;4.168;2023-04-06T10:41:07;19.80;;;14.40;;
19436;SDS011;9854;50.968;4.168;2023-04-06T10:43:35;18.50;;;14.80;;
19436;SDS011;9854;50.968;4.168;2023-04-06T10:46:02;17.20;;;15.27;;
19436;SDS011;9854;50.968;4.168;2023-04-06T10:48:39;19.53;;;14.67;;
19436;SDS011;9854;50.968;4.168;2023-04-06T10:51:39;17.87;;;14.70;;
19436;SDS011;9854;50.968;4.168;2023-04-06T10:53:59;22.43;;;15.40;;
19436;SDS011;9854;50.968;4.168;2023-04-06T10:56:25;17.87;;;15.07;;
19436;SDS011;9854;50.968;4.168;2023-04-06T10:58:53;20.40;;;16.13;;
19436;SDS011;9854;50.968;4.168;2023-04-06T11:01:23;18.67;;;15.00;;
19436;SDS011;9854;50.968;4.168;2023-04-06T11:03:52;20.70;;;15.67;;
19436;SDS011;9854;50.968;4.168;2023-04-06T11:06:20;22.23;;;15.53;;
19436;SDS011;9854;50.968;4.168;2023-04-06T11:08:51;22.77;;;16.17;;
19436;SDS011;9854;50.968;4.168;2023-04-06T11:11:19;21.10;;;16.83;;
19436;SDS011;9854;50.968;4.168;2023-04-06T11:13:49;26.40;;;16.83;;
19436;SDS011;9854;50.968;4.168;2023-04-06T11:16:19;20.13;;;16.77;;
19436;SDS011;9854;50.968;4.168;2023-04-06T11:18:51;25.57;;;17.57;;
19436;SDS011;9854;50.968;4.168;2023-04-06T11:22:05;25.13;;;18.77;;
19436;SDS011;9854;50.968;4.168;2023-04-06T11:24:18;26.03;;;18.80;;
19436;SDS011;9854;50.968;4.168;2023-04-06T11:26:51;26.07;;;18.57;;
19436;SDS011;9854;50.968;4.168;2023-04-06T11:29:17;29.10;;;20.67;;
19436;SDS011;9854;50.968;4.168;2023-04-06T11:31:48;26.40;;;19.63;;
19436;SDS011;9854;50.968;4.168;2023-04-06T11:34:22;28.43;;;19.87;;
19436;SDS011;9854;50.968;4.168;2023-04-06T11:36:49;30.03;;;21.10;;
19436;SDS011;9854;50.968;4.168;2023-04-06T11:39:23;28.87;;;20.83;;
19436;SDS011;9854;50.968;4.168;2023-04-06T11:41:51;25.37;;;17.90;;
19436;SDS011;9854;50.968;4.168;2023-04-06T11:44:36;26.23;;;18.53;;
19436;SDS011;9854;50.968;4.168;2023-04-06T11:47:07;24.00;;;17.67;;
19436;SDS011;9854;50.968;4.168;2023-04-06T11:49:39;26.30;;;18.73;;
19436;SDS011;9854;50.968;4.168;2023-04-06T11:52:14;25.30;;;16.93;;
19436;SDS011;9854;50.968;4.168;2023-04-06T11:54:44;22.57;;;17.77;;
19436;SDS011;9854;50.968;4.168;2023-04-06T11:57:11;21.03;;;16.73;;
19436;SDS011;9854;50.968;4.168;2023-04-06T11:59:36;19.93;;;15.77;;
19436;SDS011;9854;50.968;4.168;2023-04-06T12:02:02;21.17;;;16.33;;
19436;SDS011;9854;50.968;4.168;2023-04-06T12:04:29;20.63;;;15.77;;
19436;SDS011;9854;50.968;4.168;2023-04-06T12:06:55;18.67;;;14.57;;
19436;SDS011;9854;50.968;4.168;2023-04-06T12:09:21;16.73;;;14.20;;
19436;SDS011;9854;50.968;4.168;2023-04-06T12:11:46;15.67;;;14.10;;
19436;SDS011;9854;50.968;4.168;2023-04-06T12:14:12;18.47;;;15.20;;
19436;SDS011;9854;50.968;4.168;2023-04-06T12:16:38;18.80;;;15.93;;
19436;SDS011;9854;50.968;4.168;2023-04-06T12:19:05;18.77;;;15.23;;
19436;SDS011;9854;50.968;4.168;2023-04-06T12:21:30;20.50;;;15.73;;
19436;SDS011;9854;50.968;4.168;2023-04-06T12:23:57;19.77;;;16.50;;
19436;SDS011;9854;50.968;4.168;2023-04-06T12:26:23;19.43;;;15.93;;
19436;SDS011;9854;50.968;4.168;2023-04-06T12:28:50;20.67;;;16.70;;
19436;SDS011;9854;50.968;4.168;2023-04-06T12:31:16;21.60;;;16.87;;
19436;SDS011;9854;50.968;4.168;2023-04-06T12:33:42;19.17;;;15.03;;
19436;SDS011;9854;50.968;4.168;2023-04-06T12:36:12;20.33;;;16.50;;
19436;SDS011;9854;50.968;4.168;2023-04-06T12:38:39;18.07;;;15.67;;
19436;SDS011;9854;50.968;4.168;2023-04-06T12:41:06;17.97;;;16.07;;
19436;SDS011;9854;50.968;4.168;2023-04-06T12:43:32;18.63;;;15.83;;
19436;SDS011;9854;50.968;4.168;2023-04-06T12:45:57;18.40;;;16.40;;
19436;SDS011;9854;50.968;4.168;2023-04-06T12:48:24;17.03;;;14.87;;
19436;SDS011;9854;50.968;4.168;2023-04-06T12:50:54;19.67;;;14.70;;
19436;SDS011;9854;50.968;4.168;2023-04-06T12:53:21;18.17;;;15.03;;
19436;SDS011;9854;50.968;4.168;2023-04-06T12:55:46;18.70;;;16.70;;
19436;SDS011;9854;50.968;4.168;2023-04-06T12:58:12;18.67;;;16.60;;
19436;SDS011;9854;50.968;4.168;2023-04-06T13:00:38;19.20;;;17.20;;
19436;SDS011;9854;50.968;4.168;2023-04-06T13:03:03;20.20;;;17.73;;
19436;SDS011;9854;50.968;4.168;2023-04-06T13:05:29;20.40;;;17.53;;
19436;SDS011;9854;50.968;4.168;2023-04-06T13:07:55;21.70;;;17.57;;
19436;SDS011;9854;50.968;4.168;2023-04-06T13:10:22;21.23;;;18.93;;
19436;SDS011;9854;50.968;4.168;2023-04-06T13:12:48;21.57;;;18.80;;
19436;SDS011;9854;50.968;4.168;2023-04-06T13:15:13;20.97;;;18.43;;
19436;SDS011;9854;50.968;4.168;2023-04-06T13:17:40;24.73;;;19.03;;
19436;SDS011;9854;50.968;4.168;2023-04-06T13:20:05;21.90;;;18.63;;
19436;SDS011;9854;50.968;4.168;2023-04-06T13:22:32;21.37;;;18.43;;
19436;SDS011;9854;50.968;4.168;2023-04-06T13:24:57;23.43;;;19.73;;
19436;SDS011;9854;50.968;4.168;2023-04-06T13:27:23;25.13;;;19.73;;
19436;SDS011;9854;50.968;4.168;2023-04-06T13:29:49;23.07;;;20.57;;
19436;SDS011;9854;50.968;4.168;2023-04-06T13:32:14;25.47;;;19.77;;
19436;SDS011;9854;50.968;4.168;2023-04-06T13:34:40;22.33;;;20.00;;
19436;SDS011;9854;50.968;4.168;2023-04-06T13:37:10;23.67;;;19.93;;
19436;SDS011;9854;50.968;4.168;2023-04-06T13:39:37;23.23;;;20.77;;
19436;SDS011;9854;50.968;4.168;2023-04-06T13:42:02;27.37;;;20.33;;
19436;SDS011;9854;50.968;4.168;2023-04-06T13:44:28;22.50;;;19.97;;
19436;SDS011;9854;50.968;4.168;2023-04-06T13:46:55;22.10;;;19.00;;
19436;SDS011;9854;50.968;4.168;2023-04-06T13:49:21;24.07;;;20.53;;
19436;SDS011;9854;50.968;4.168;2023-04-06T13:51:47;22.37;;;19.83;;
19436;SDS011;9854;50.968;4.168;2023-04-06T13:54:13;22.37;;;19.97;;
19436;SDS011;9854;50.968;4.168;2023-04-06T13:56:38;26.30;;;19.87;;
19436;SDS011;9854;50.968;4.168;2023-04-06T13:59:04;24.70;;;20.13;;
19436;SDS011;9854;50.968;4.168;2023-04-06T14:01:30;23.73;;;18.40;;
19436;SDS011;9854;50.968;4.168;2023-04-06T14:03:56;22.43;;;18.20;;
19436;SDS011;9854;50.968;4.168;2023-04-06T14:06:21;22.37;;;18.67;;
19436;SDS011;9854;50.968;4.168;2023-04-06T14:08:47;20.77;;;18.57;;
19436;SDS011;9854;50.968;4.168;2023-04-06T14:11:13;22.07;;;16.77;;
19436;SDS011;9854;50.968;4.168;2023-04-06T14:13:39;19.63;;;17.57;;
19436;SDS011;9854;50.968;4.168;2023-04-06T14:16:05;19.60;;;17.40;;
19436;SDS011;9854;50.968;4.168;2023-04-06T14:18:32;21.47;;;18.43;;
19436;SDS011;9854;50.968;4.168;2023-04-06T14:20:59;20.23;;;18.10;;
19436;SDS011;9854;50.968;4.168;2023-04-06T14:23:26;21.53;;;18.10;;
19436;SDS011;9854;50.968;4.168;2023-04-06T14:26:05;18.50;;;16.60;;
19436;SDS011;9854;50.968;4.168;2023-04-06T14:28:32;20.43;;;17.73;;
19436;SDS011;9854;50.968;4.168;2023-04-06T14:31:02;22.50;;;18.07;;
19436;SDS011;9854;50.968;4.168;2023-04-06T14:33:35;22.47;;;17.67;;
19436;SDS011;9854;50.968;4.168;2023-04-06T14:36:04;22.33;;;17.57;;
19436;SDS011;9854;50.968;4.168;2023-04-06T14:38:31;25.53;;;20.30;;
19436;SDS011;9854;50.968;4.168;2023-04-06T14:40:57;24.90;;;20.27;;